sensor_id;sensor_type;location;lat;lon;timestamp;pressure;altitude;pressure_sealevel;temperature;humidity
65997;BME280;52765;52.258;21.052;2023-04-27T00:01:13;100643.16;;;4.86;80.85
65997;BME280;52765;52.258;21.052;2023-04-27T00:03:39;100648.06;;;4.92;80.32
65997;BME280;52765;52.258;21.052;2023-04-27T00:06:07;100646.00;;;4.96;79.95
65997;BME280;52765;52.258;21.052;2023-04-27T00:08:33;100650.06;;;5.02;79.49
65997;BME280;52765;52.258;21.052;2023-04-27T00:10:59;100656.47;;;4.99;79.74
65997;BME280;52765;52.258;21.052;2023-04-27T00:13:32;100637.38;;;4.92;79.35
65997;BME280;52765;52.258;21.052;2023-04-27T00:15:59;100644.88;;;4.87;79.44
65997;BME280;52765;52.258;21.052;2023-04-27T00:18:28;100649.81;;;4.80;80.00
65997;BME280;52765;52.258;21.052;2023-04-27T00:20:56;100644.78;;;4.76;80.29
65997;BME280;52765;52.258;21.052;2023-04-27T00:23:27;100649.81;;;4.80;80.67
65997;BME280;52765;52.258;21.052;2023-04-27T00:25:52;100647.13;;;4.80;80.02
65997;BME280;52765;52.258;21.052;2023-04-27T00:28:18;100648.34;;;4.76;80.65
65997;BME280;52765;52.258;21.052;2023-04-27T00:30:43;100656.91;;;4.69;80.89
65997;BME280;52765;52.258;21.052;2023-04-27T00:33:12;100655.94;;;4.70;81.03
65997;BME280;52765;52.258;21.052;2023-04-27T00:35:37;100660.63;;;4.66;80.60
65997;BME280;52765;52.258;21.052;2023-04-27T00:38:03;100661.38;;;4.68;81.41
65997;BME280;52765;52.258;21.052;2023-04-27T00:40:32;100664.91;;;4.69;81.42
65997;BME280;52765;52.258;21.052;2023-04-27T00:42:57;100660.50;;;4.68;81.81
65997;BME280;52765;52.258;21.052;2023-04-27T00:45:23;100664.38;;;4.63;84.54
65997;BME280;52765;52.258;21.052;2023-04-27T00:47:48;100664.50;;;4.62;82.84
65997;BME280;52765;52.258;21.052;2023-04-27T00:50:15;100664.91;;;4.69;82.97
65997;BME280;52765;52.258;21.052;2023-04-27T00:52:41;100664.69;;;4.72;81.60
65997;BME280;52765;52.258;21.052;2023-04-27T00:55:07;100660.28;;;4.71;81.77
65997;BME280;52765;52.258;21.052;2023-04-27T00:57:33;100661.50;;;4.67;81.33
65997;BME280;52765;52.258;21.052;2023-04-27T00:59:59;100667.28;;;4.60;81.58
65997;BME280;52765;52.258;21.052;2023-04-27T01:02:25;100667.28;;;4.60;82.08
65997;BME280;52765;52.258;21.052;2023-04-27T01:04:51;100671.66;;;4.61;82.23
65997;BME280;52765;52.258;21.052;2023-04-27T01:07:18;100665.56;;;4.59;82.52
65997;BME280;52765;52.258;21.052;2023-04-27T01:09:49;100670.78;;;4.61;82.75
65997;BME280;52765;52.258;21.052;2023-04-27T01:12:21;100674.53;;;4.58;82.31
65997;BME280;52765;52.258;21.052;2023-04-27T01:14:46;100672.09;;;4.55;82.43
65997;BME280;52765;52.258;21.052;2023-04-27T01:17:12;100672.81;;;4.57;82.32
65997;BME280;52765;52.258;21.052;2023-04-27T01:19:38;100676.16;;;4.48;83.17
65997;BME280;52765;52.258;21.052;2023-04-27T01:22:04;100680.72;;;4.46;82.93
65997;BME280;52765;52.258;21.052;2023-04-27T01:24:31;100683.66;;;4.43;82.65
65997;BME280;52765;52.258;21.052;2023-04-27T01:26:57;100682.25;;;4.37;83.62
65997;BME280;52765;52.258;21.052;2023-04-27T01:29:22;100684.59;;;4.42;84.02
65997;BME280;52765;52.258;21.052;2023-04-27T01:31:48;100678.75;;;4.37;83.58
65997;BME280;52765;52.258;21.052;2023-04-27T01:34:13;100683.41;;;4.46;83.21
65997;BME280;52765;52.258;21.052;2023-04-27T01:36:41;100677.34;;;4.44;83.17
65997;BME280;52765;52.258;21.052;2023-04-27T01:39:06;100680.09;;;4.42;84.06
65997;BME280;52765;52.258;21.052;2023-04-27T01:41:35;100675.41;;;4.46;84.01
65997;BME280;52765;52.258;21.052;2023-04-27T01:44:01;100680.63;;;4.48;83.74
65997;BME280;52765;52.258;21.052;2023-04-27T01:46:31;100677.84;;;4.49;83.86
65997;BME280;52765;52.258;21.052;2023-04-27T01:48:56;100684.81;;;4.52;84.38
65997;BME280;52765;52.258;21.052;2023-04-27T01:51:25;100681.25;;;4.51;84.57
65997;BME280;52765;52.258;21.052;2023-04-27T01:53:50;100686.72;;;4.50;83.92
65997;BME280;52765;52.258;21.052;2023-04-27T01:56:15;100693.13;;;4.47;84.50
65997;BME280;52765;52.258;21.052;2023-04-27T01:58:41;100689.41;;;4.50;84.24
65997;BME280;52765;52.258;21.052;2023-04-27T02:01:06;100690.03;;;4.53;84.29
65997;BME280;52765;52.258;21.052;2023-04-27T02:03:32;100691.81;;;4.53;84.17
65997;BME280;52765;52.258;21.052;2023-04-27T02:05:58;100697.19;;;4.40;84.67
65997;BME280;52765;52.258;21.052;2023-04-27T02:08:23;100699.97;;;4.38;84.80
65997;BME280;52765;52.258;21.052;2023-04-27T02:10:52;100695.47;;;4.39;85.60
65997;BME280;52765;52.258;21.052;2023-04-27T02:13:22;100694.00;;;4.35;85.04
65997;BME280;52765;52.258;21.052;2023-04-27T02:15:51;100692.19;;;4.22;86.19
65997;BME280;52765;52.258;21.052;2023-04-27T02:18:19;100699.22;;;4.23;85.78
65997;BME280;52765;52.258;21.052;2023-04-27T02:20:45;100696.66;;;4.09;86.60
65997;BME280;52765;52.258;21.052;2023-04-27T02:23:10;100694.75;;;3.98;86.81
65997;BME280;52765;52.258;21.052;2023-04-27T02:25:36;100693.56;;;3.89;87.35
65997;BME280;52765;52.258;21.052;2023-04-27T02:28:03;100691.47;;;3.95;88.12
65997;BME280;52765;52.258;21.052;2023-04-27T02:30:28;100697.22;;;4.01;87.48
65997;BME280;52765;52.258;21.052;2023-04-27T02:32:56;100689.41;;;4.11;86.41
65997;BME280;52765;52.258;21.052;2023-04-27T02:35:21;100686.97;;;4.08;86.31
65997;BME280;52765;52.258;21.052;2023-04-27T02:37:47;100689.31;;;4.13;86.11
65997;BME280;52765;52.258;21.052;2023-04-27T02:40:12;100689.31;;;4.13;86.05
65997;BME280;52765;52.258;21.052;2023-04-27T02:42:38;100692.84;;;4.13;86.76
65997;BME280;52765;52.258;21.052;2023-04-27T02:45:05;100691.66;;;4.17;86.33
65997;BME280;52765;52.258;21.052;2023-04-27T02:47:31;100686.94;;;4.21;85.29
65997;BME280;52765;52.258;21.052;2023-04-27T02:49:56;100704.25;;;4.15;85.29
65997;BME280;52765;52.258;21.052;2023-04-27T02:52:22;100698.06;;;4.02;85.90
65997;BME280;52765;52.258;21.052;2023-04-27T02:54:47;100695.81;;;3.96;87.32
65997;BME280;52765;52.258;21.052;2023-04-27T02:57:13;100699.00;;;4.01;87.25
65997;BME280;52765;52.258;21.052;2023-04-27T02:59:38;100698.69;;;4.05;86.48
65997;BME280;52765;52.258;21.052;2023-04-27T03:02:04;100695.19;;;4.05;86.34
65997;BME280;52765;52.258;21.052;2023-04-27T03:04:29;100704.88;;;4.06;86.47
65997;BME280;52765;52.258;21.052;2023-04-27T03:06:55;100704.47;;;4.12;85.88
65997;BME280;52765;52.258;21.052;2023-04-27T03:09:20;100704.03;;;4.18;86.07
65997;BME280;52765;52.258;21.052;2023-04-27T03:11:46;100711.94;;;4.20;85.88
65997;BME280;52765;52.258;21.052;2023-04-27T03:14:11;100703.06;;;4.19;85.72
65997;BME280;52765;52.258;21.052;2023-04-27T03:16:37;100716.28;;;4.21;85.52
65997;BME280;52765;52.258;21.052;2023-04-27T03:19:03;100706.81;;;4.17;85.35
65997;BME280;52765;52.258;21.052;2023-04-27T03:21:28;100709.78;;;4.12;85.71
65997;BME280;52765;52.258;21.052;2023-04-27T03:23:54;100708.59;;;4.16;85.99
65997;BME280;52765;52.258;21.052;2023-04-27T03:26:19;100715.66;;;4.17;85.16
65997;BME280;52765;52.258;21.052;2023-04-27T03:28:45;100711.41;;;4.15;84.73
65997;BME280;52765;52.258;21.052;2023-04-27T03:31:12;100707.03;;;4.14;86.08
65997;BME280;52765;52.258;21.052;2023-04-27T03:33:38;100714.72;;;4.18;85.96
65997;BME280;52765;52.258;21.052;2023-04-27T03:36:06;100707.66;;;4.17;84.94
65997;BME280;52765;52.258;21.052;2023-04-27T03:38:33;100718.00;;;4.22;85.02
65997;BME280;52765;52.258;21.052;2023-04-27T03:40:59;100705.53;;;4.22;84.67
65997;BME280;52765;52.258;21.052;2023-04-27T03:43:25;100710.66;;;4.25;84.95
65997;BME280;52765;52.258;21.052;2023-04-27T03:45:51;100718.53;;;4.27;84.82
65997;BME280;52765;52.258;21.052;2023-04-27T03:48:17;100723.34;;;4.35;84.86
65997;BME280;52765;52.258;21.052;2023-04-27T03:50:44;100724.94;;;4.37;84.34
65997;BME280;52765;52.258;21.052;2023-04-27T03:53:10;100722.91;;;4.41;84.00
65997;BME280;52765;52.258;21.052;2023-04-27T03:55:37;100721.94;;;4.42;83.78
65997;BME280;52765;52.258;21.052;2023-04-27T03:58:03;100729.00;;;4.43;84.14
65997;BME280;52765;52.258;21.052;2023-04-27T04:00:28;100727.81;;;4.47;84.10
65997;BME280;52765;52.258;21.052;2023-04-27T04:02:54;100725.34;;;4.44;83.82
65997;BME280;52765;52.258;21.052;2023-04-27T04:05:19;100742.63;;;4.51;84.09
65997;BME280;52765;52.258;21.052;2023-04-27T04:07:45;100738.91;;;4.54;84.07
65997;BME280;52765;52.258;21.052;2023-04-27T04:10:10;100746.16;;;4.39;84.62
65997;BME280;52765;52.258;21.052;2023-04-27T04:12:36;100751.59;;;4.37;85.39
65997;BME280;52765;52.258;21.052;2023-04-27T04:15:03;100757.38;;;4.44;85.18
65997;BME280;52765;52.258;21.052;2023-04-27T04:17:29;100756.94;;;4.50;84.61
65997;BME280;52765;52.258;21.052;2023-04-27T04:19:54;100753.84;;;4.56;84.24
65997;BME280;52765;52.258;21.052;2023-04-27T04:22:20;100756.84;;;4.52;83.04
65997;BME280;52765;52.258;21.052;2023-04-27T04:24:45;100751.41;;;4.40;83.84
65997;BME280;52765;52.258;21.052;2023-04-27T04:27:11;100767.72;;;4.36;83.42
65997;BME280;52765;52.258;21.052;2023-04-27T04:29:37;100755.69;;;4.43;83.85
65997;BME280;52765;52.258;21.052;2023-04-27T04:32:03;100755.13;;;4.51;83.78
65997;BME280;52765;52.258;21.052;2023-04-27T04:34:29;100757.38;;;4.57;82.95
65997;BME280;52765;52.258;21.052;2023-04-27T04:36:55;100753.06;;;4.67;82.89
65997;BME280;52765;52.258;21.052;2023-04-27T04:39:22;100756.28;;;4.72;82.12
65997;BME280;52765;52.258;21.052;2023-04-27T04:41:48;100755.44;;;4.72;82.89
65997;BME280;52765;52.258;21.052;2023-04-27T04:44:14;100755.22;;;4.75;81.95
65997;BME280;52765;52.258;21.052;2023-04-27T04:46:40;100759.13;;;4.82;82.30
65997;BME280;52765;52.258;21.052;2023-04-27T04:49:06;100757.72;;;4.89;82.60
65997;BME280;52765;52.258;21.052;2023-04-27T04:51:32;100760.69;;;4.97;81.90
65997;BME280;52765;52.258;21.052;2023-04-27T04:53:57;100766.22;;;5.07;81.38
65997;BME280;52765;52.258;21.052;2023-04-27T04:56:23;100765.91;;;5.12;81.15
65997;BME280;52765;52.258;21.052;2023-04-27T04:58:48;100763.84;;;5.15;80.85
65997;BME280;52765;52.258;21.052;2023-04-27T05:01:14;100765.00;;;5.24;80.42
65997;BME280;52765;52.258;21.052;2023-04-27T05:03:39;100766.72;;;5.25;79.40
65997;BME280;52765;52.258;21.052;2023-04-27T05:06:05;100766.28;;;5.31;78.94
65997;BME280;52765;52.258;21.052;2023-04-27T05:08:31;100780.31;;;5.46;78.60
65997;BME280;52765;52.258;21.052;2023-04-27T05:10:56;100769.03;;;5.54;77.46
65997;BME280;52765;52.258;21.052;2023-04-27T05:13:22;100775.00;;;5.57;76.82
65997;BME280;52765;52.258;21.052;2023-04-27T05:15:49;100765.19;;;5.58;77.13
65997;BME280;52765;52.258;21.052;2023-04-27T05:18:15;100782.75;;;5.73;76.38
65997;BME280;52765;52.258;21.052;2023-04-27T05:20:41;100773.28;;;5.81;75.79
65997;BME280;52765;52.258;21.052;2023-04-27T05:23:07;100779.53;;;5.92;75.26
65997;BME280;52765;52.258;21.052;2023-04-27T05:25:33;100777.72;;;5.93;74.69
65997;BME280;52765;52.258;21.052;2023-04-27T05:27:59;100771.19;;;5.97;74.30
65997;BME280;52765;52.258;21.052;2023-04-27T05:30:25;100777.72;;;5.93;73.82
65997;BME280;52765;52.258;21.052;2023-04-27T05:32:51;100785.91;;;6.03;73.65
65997;BME280;52765;52.258;21.052;2023-04-27T05:35:16;100782.66;;;6.10;72.55
65997;BME280;52765;52.258;21.052;2023-04-27T05:37:42;100791.28;;;6.14;72.99
65997;BME280;52765;52.258;21.052;2023-04-27T05:40:08;100791.09;;;6.28;72.68
65997;BME280;52765;52.258;21.052;2023-04-27T05:42:34;100800.00;;;6.40;71.45
65997;BME280;52765;52.258;21.052;2023-04-27T05:45:01;100795.63;;;6.28;70.86
65997;BME280;52765;52.258;21.052;2023-04-27T05:47:27;100791.44;;;6.24;71.22
65997;BME280;52765;52.258;21.052;2023-04-27T05:49:54;100807.22;;;6.16;71.92
65997;BME280;52765;52.258;21.052;2023-04-27T05:52:19;100805.66;;;6.13;71.84
65997;BME280;52765;52.258;21.052;2023-04-27T05:54:49;100794.09;;;6.13;72.06
65997;BME280;52765;52.258;21.052;2023-04-27T05:57:15;100792.28;;;6.13;72.30
65997;BME280;52765;52.258;21.052;2023-04-27T05:59:41;100801.31;;;6.23;71.55
65997;BME280;52765;52.258;21.052;2023-04-27T06:02:07;100796.91;;;6.22;71.47
65997;BME280;52765;52.258;21.052;2023-04-27T06:04:32;100801.34;;;6.35;70.88
65997;BME280;52765;52.258;21.052;2023-04-27T06:06:58;100803.75;;;6.38;70.56
65997;BME280;52765;52.258;21.052;2023-04-27T06:09:24;100805.31;;;6.29;70.55
65997;BME280;52765;52.258;21.052;2023-04-27T06:11:50;100802.56;;;6.42;70.80
65997;BME280;52765;52.258;21.052;2023-04-27T06:14:15;100803.53;;;6.52;69.73
65997;BME280;52765;52.258;21.052;2023-04-27T06:16:42;100798.31;;;6.62;69.25
65997;BME280;52765;52.258;21.052;2023-04-27T06:19:07;100803.34;;;6.78;68.40
65997;BME280;52765;52.258;21.052;2023-04-27T06:21:34;100801.63;;;6.77;68.76
65997;BME280;52765;52.258;21.052;2023-04-27T06:24:00;100801.75;;;6.75;67.92
65997;BME280;52765;52.258;21.052;2023-04-27T06:26:26;100798.72;;;6.80;67.91
65997;BME280;52765;52.258;21.052;2023-04-27T06:28:51;100810.38;;;6.90;67.91
65997;BME280;52765;52.258;21.052;2023-04-27T06:31:17;100804.91;;;7.03;67.25
65997;BME280;52765;52.258;21.052;2023-04-27T06:33:42;100804.16;;;7.12;65.66
65997;BME280;52765;52.258;21.052;2023-04-27T06:36:08;100808.16;;;7.29;65.33
65997;BME280;52765;52.258;21.052;2023-04-27T06:38:33;100804.88;;;7.26;64.46
65997;BME280;52765;52.258;21.052;2023-04-27T06:40:59;100796.34;;;7.32;64.49
65997;BME280;52765;52.258;21.052;2023-04-27T06:43:24;100807.88;;;7.44;63.65
65997;BME280;52765;52.258;21.052;2023-04-27T06:45:50;100800.44;;;7.47;64.38
65997;BME280;52765;52.258;21.052;2023-04-27T06:48:16;100805.53;;;7.62;63.75
65997;BME280;52765;52.258;21.052;2023-04-27T06:50:42;100799.66;;;7.68;63.27
65997;BME280;52765;52.258;21.052;2023-04-27T06:53:08;100809.97;;;7.84;62.42
65997;BME280;52765;52.258;21.052;2023-04-27T06:55:34;100801.88;;;7.95;62.17
65997;BME280;52765;52.258;21.052;2023-04-27T06:58:00;100810.47;;;8.10;62.04
65997;BME280;52765;52.258;21.052;2023-04-27T07:00:25;100823.38;;;8.16;60.93
65997;BME280;52765;52.258;21.052;2023-04-27T07:02:51;100811.25;;;8.22;60.12
65997;BME280;52765;52.258;21.052;2023-04-27T07:05:17;100816.94;;;8.28;59.70
65997;BME280;52765;52.258;21.052;2023-04-27T07:07:43;100813.88;;;8.33;59.73
65997;BME280;52765;52.258;21.052;2023-04-27T07:10:08;100815.69;;;8.32;58.86
65997;BME280;52765;52.258;21.052;2023-04-27T07:12:35;100830.50;;;8.27;59.47
65997;BME280;52765;52.258;21.052;2023-04-27T07:15:00;100827.41;;;8.43;59.71
65997;BME280;52765;52.258;21.052;2023-04-27T07:17:28;100822.25;;;8.61;58.88
65997;BME280;52765;52.258;21.052;2023-04-27T07:19:54;100818.06;;;8.68;58.14
65997;BME280;52765;52.258;21.052;2023-04-27T07:22:20;100813.16;;;8.52;58.25
65997;BME280;52765;52.258;21.052;2023-04-27T07:24:45;100817.22;;;8.67;58.08
65997;BME280;52765;52.258;21.052;2023-04-27T07:27:11;100813.03;;;8.75;57.17
65997;BME280;52765;52.258;21.052;2023-04-27T07:29:37;100830.16;;;8.83;55.53
65997;BME280;52765;52.258;21.052;2023-04-27T07:32:07;100821.53;;;8.80;55.66
65997;BME280;52765;52.258;21.052;2023-04-27T07:34:32;100830.03;;;8.85;55.86
65997;BME280;52765;52.258;21.052;2023-04-27T07:36:59;100826.25;;;8.97;56.50
65997;BME280;52765;52.258;21.052;2023-04-27T07:39:24;100815.16;;;9.12;56.33
65997;BME280;52765;52.258;21.052;2023-04-27T07:41:51;100820.13;;;9.16;55.97
65997;BME280;52765;52.258;21.052;2023-04-27T07:44:17;100823.56;;;9.28;55.04
65997;BME280;52765;52.258;21.052;2023-04-27T07:46:46;100822.72;;;9.37;53.72
65997;BME280;52765;52.258;21.052;2023-04-27T07:49:14;100823.56;;;9.28;53.75
65997;BME280;52765;52.258;21.052;2023-04-27T07:51:39;100824.63;;;9.16;54.07
65997;BME280;52765;52.258;21.052;2023-04-27T07:54:05;100827.06;;;9.19;54.69
65997;BME280;52765;52.258;21.052;2023-04-27T07:56:31;100831.72;;;9.17;55.12
65997;BME280;52765;52.258;21.052;2023-04-27T07:58:57;100823.53;;;9.18;54.36
65997;BME280;52765;52.258;21.052;2023-04-27T08:01:23;100833.56;;;9.16;54.57
65997;BME280;52765;52.258;21.052;2023-04-27T08:03:48;100837.75;;;9.40;55.45
65997;BME280;52765;52.258;21.052;2023-04-27T08:06:14;100833.56;;;9.76;53.93
65997;BME280;52765;52.258;21.052;2023-04-27T08:08:40;100833.84;;;9.83;52.98
65997;BME280;52765;52.258;21.052;2023-04-27T08:11:09;100843.34;;;9.87;53.48
65997;BME280;52765;52.258;21.052;2023-04-27T08:13:36;100843.34;;;9.97;53.13
65997;BME280;52765;52.258;21.052;2023-04-27T08:16:02;100843.91;;;10.10;52.46
65997;BME280;52765;52.258;21.052;2023-04-27T08:18:27;100836.16;;;10.36;51.55
65997;BME280;52765;52.258;21.052;2023-04-27T08:20:53;100822.94;;;10.63;50.10
65997;BME280;52765;52.258;21.052;2023-04-27T08:23:19;100829.13;;;10.73;49.38
65997;BME280;52765;52.258;21.052;2023-04-27T08:25:45;100826.63;;;10.99;48.85
65997;BME280;52765;52.258;21.052;2023-04-27T08:28:12;100822.41;;;11.24;49.53
65997;BME280;52765;52.258;21.052;2023-04-27T08:30:37;100826.16;;;11.04;48.81
65997;BME280;52765;52.258;21.052;2023-04-27T08:33:03;100820.16;;;10.82;48.40
65997;BME280;52765;52.258;21.052;2023-04-27T08:35:28;100830.34;;;10.41;49.55
65997;BME280;52765;52.258;21.052;2023-04-27T08:37:54;100828.88;;;10.27;50.63
65997;BME280;52765;52.258;21.052;2023-04-27T08:40:20;100827.75;;;10.00;51.06
65997;BME280;52765;52.258;21.052;2023-04-27T08:42:57;100828.19;;;10.06;51.27
65997;BME280;52765;52.258;21.052;2023-04-27T08:45:24;100828.50;;;10.03;51.57
65997;BME280;52765;52.258;21.052;2023-04-27T08:47:50;100832.88;;;10.04;51.42
65997;BME280;52765;52.258;21.052;2023-04-27T08:50:16;100821.97;;;9.95;52.54
65997;BME280;52765;52.258;21.052;2023-04-27T08:52:46;100833.84;;;9.73;52.12
65997;BME280;52765;52.258;21.052;2023-04-27T08:55:12;100824.97;;;9.32;53.00
65997;BME280;52765;52.258;21.052;2023-04-27T08:57:38;100826.69;;;9.33;53.31
65997;BME280;52765;52.258;21.052;2023-04-27T09:00:06;100823.03;;;9.34;53.73
65997;BME280;52765;52.258;21.052;2023-04-27T09:02:47;100821.47;;;9.41;54.21
65997;BME280;52765;52.258;21.052;2023-04-27T09:05:17;100831.69;;;9.48;54.06
65997;BME280;52765;52.258;21.052;2023-04-27T09:07:55;100828.69;;;9.51;53.45
65997;BME280;52765;52.258;21.052;2023-04-27T09:10:20;100827.16;;;9.48;54.09
65997;BME280;52765;52.258;21.052;2023-04-27T09:13:07;100835.66;;;9.53;52.88
65997;BME280;52765;52.258;21.052;2023-04-27T09:15:41;100832.38;;;9.40;52.60
65997;BME280;52765;52.258;21.052;2023-04-27T09:18:15;100828.59;;;9.62;52.64
65997;BME280;52765;52.258;21.052;2023-04-27T09:20:51;100836.97;;;9.88;51.46
65997;BME280;52765;52.258;21.052;2023-04-27T09:23:26;100834.69;;;9.84;50.19
65997;BME280;52765;52.258;21.052;2023-04-27T09:25:53;100834.13;;;9.70;50.98
65997;BME280;52765;52.258;21.052;2023-04-27T09:28:20;100830.44;;;9.71;50.41
65997;BME280;52765;52.258;21.052;2023-04-27T09:30:54;100843.19;;;9.59;50.72
65997;BME280;52765;52.258;21.052;2023-04-27T09:33:30;100846.25;;;9.45;51.90
65997;BME280;52765;52.258;21.052;2023-04-27T09:35:58;100843.25;;;9.38;53.01
65997;BME280;52765;52.258;21.052;2023-04-27T09:38:24;100836.34;;;9.55;53.14
65997;BME280;52765;52.258;21.052;2023-04-27T09:40:52;100840.50;;;9.69;53.54
65997;BME280;52765;52.258;21.052;2023-04-27T09:43:18;100842.91;;;9.82;53.51
65997;BME280;52765;52.258;21.052;2023-04-27T09:45:43;100841.53;;;9.88;53.53
65997;BME280;52765;52.258;21.052;2023-04-27T09:48:11;100836.25;;;9.67;54.36
65997;BME280;52765;52.258;21.052;2023-04-27T09:50:41;100835.53;;;9.65;54.44
65997;BME280;52765;52.258;21.052;2023-04-27T09:53:14;100838.41;;;9.82;53.52
65997;BME280;52765;52.258;21.052;2023-04-27T09:55:53;100833.44;;;10.07;52.55
65997;BME280;52765;52.258;21.052;2023-04-27T10:01:31;100841.69;;;10.35;52.04
65997;BME280;52765;52.258;21.052;2023-04-27T10:09:20;100840.38;;;10.49;50.50
65997;BME280;52765;52.258;21.052;2023-04-27T10:11:48;100844.63;;;10.51;50.74
65997;BME280;52765;52.258;21.052;2023-04-27T10:14:21;100841.78;;;10.53;49.09
65997;BME280;52765;52.258;21.052;2023-04-27T10:16:54;100846.63;;;10.40;49.30
65997;BME280;52765;52.258;21.052;2023-04-27T10:19:21;100845.78;;;10.29;49.15
65997;BME280;52765;52.258;21.052;2023-04-27T10:21:59;100844.06;;;10.18;49.68
65997;BME280;52765;52.258;21.052;2023-04-27T10:24:39;100839.66;;;10.47;48.92
65997;BME280;52765;52.258;21.052;2023-04-27T10:27:08;100833.97;;;10.69;48.52
65997;BME280;52765;52.258;21.052;2023-04-27T10:29:42;100840.31;;;10.78;48.55
65997;BME280;52765;52.258;21.052;2023-04-27T10:32:11;100833.44;;;10.93;48.54
65997;BME280;52765;52.258;21.052;2023-04-27T10:34:37;100834.13;;;11.05;47.04
65997;BME280;52765;52.258;21.052;2023-04-27T10:37:05;100822.88;;;11.10;46.39
65997;BME280;52765;52.258;21.052;2023-04-27T10:39:34;100836.69;;;10.97;46.06
65997;BME280;52765;52.258;21.052;2023-04-27T10:42:01;100844.13;;;10.85;45.64
65997;BME280;52765;52.258;21.052;2023-04-27T10:44:29;100829.78;;;10.95;45.35
65997;BME280;52765;52.258;21.052;2023-04-27T10:47:11;100832.69;;;11.11;45.42
65997;BME280;52765;52.258;21.052;2023-04-27T10:49:37;100836.91;;;11.14;44.68
65997;BME280;52765;52.258;21.052;2023-04-27T10:52:03;100835.34;;;11.21;44.38
65997;BME280;52765;52.258;21.052;2023-04-27T10:54:29;100839.97;;;11.28;44.30
65997;BME280;52765;52.258;21.052;2023-04-27T10:57:15;100829.34;;;11.27;44.00
65997;BME280;52765;52.258;21.052;2023-04-27T10:59:52;100834.28;;;11.32;44.79
65997;BME280;52765;52.258;21.052;2023-04-27T11:02:25;100843.69;;;11.27;45.39
65997;BME280;52765;52.258;21.052;2023-04-27T11:04:51;100846.63;;;10.97;45.88
65997;BME280;52765;52.258;21.052;2023-04-27T11:07:24;100849.13;;;10.70;46.93
65997;BME280;52765;52.258;21.052;2023-04-27T11:09:50;100858.38;;;10.48;47.63
65997;BME280;52765;52.258;21.052;2023-04-27T11:12:16;100861.09;;;10.09;49.95
65997;BME280;52765;52.258;21.052;2023-04-27T11:14:42;100854.81;;;9.79;50.93
65997;BME280;52765;52.258;21.052;2023-04-27T11:17:08;100861.44;;;9.66;51.82
65997;BME280;52765;52.258;21.052;2023-04-27T11:19:43;100852.63;;;9.54;52.82
65997;BME280;52765;52.258;21.052;2023-04-27T11:22:10;100861.28;;;9.67;51.89
65997;BME280;52765;52.258;21.052;2023-04-27T11:24:35;100858.63;;;9.77;50.53
65997;BME280;52765;52.258;21.052;2023-04-27T11:27:01;100856.63;;;9.79;47.05
65997;BME280;52765;52.258;21.052;2023-04-27T11:29:36;100861.19;;;9.78;46.35
65997;BME280;52765;52.258;21.052;2023-04-27T11:32:02;100862.94;;;9.49;45.79
65997;BME280;52765;52.258;21.052;2023-04-27T11:34:28;100863.44;;;9.23;45.25
65997;BME280;52765;52.258;21.052;2023-04-27T11:37:00;100849.88;;;9.24;46.52
65997;BME280;52765;52.258;21.052;2023-04-27T11:39:31;100865.47;;;9.40;44.77
65997;BME280;52765;52.258;21.052;2023-04-27T11:42:13;100849.88;;;9.24;44.99
65997;BME280;52765;52.258;21.052;2023-04-27T11:44:39;100858.28;;;9.51;44.65
65997;BME280;52765;52.258;21.052;2023-04-27T11:47:05;100855.94;;;9.77;44.11
65997;BME280;52765;52.258;21.052;2023-04-27T11:49:31;100854.53;;;9.92;44.41
65997;BME280;52765;52.258;21.052;2023-04-27T11:51:57;100846.91;;;10.27;43.81
65997;BME280;52765;52.258;21.052;2023-04-27T11:54:27;100853.53;;;10.62;43.10
65997;BME280;52765;52.258;21.052;2023-04-27T11:57:03;100852.50;;;10.82;43.32
65997;BME280;52765;52.258;21.052;2023-04-27T11:59:30;100845.63;;;11.07;42.66
65997;BME280;52765;52.258;21.052;2023-04-27T12:01:55;100847.81;;;11.50;41.39
65997;BME280;52765;52.258;21.052;2023-04-27T12:04:21;100840.31;;;11.71;40.88
65997;BME280;52765;52.258;21.052;2023-04-27T12:06:46;100854.41;;;11.93;40.61
65997;BME280;52765;52.258;21.052;2023-04-27T12:09:12;100842.03;;;12.08;40.15
65997;BME280;52765;52.258;21.052;2023-04-27T12:11:37;100858.41;;;12.07;40.57
65997;BME280;52765;52.258;21.052;2023-04-27T12:14:03;100846.59;;;12.08;40.10
65997;BME280;52765;52.258;21.052;2023-04-27T12:16:28;100830.34;;;12.44;39.56
65997;BME280;52765;52.258;21.052;2023-04-27T12:18:54;100840.09;;;12.00;38.81
65997;BME280;52765;52.258;21.052;2023-04-27T12:21:19;100850.53;;;11.50;38.54
65997;BME280;52765;52.258;21.052;2023-04-27T12:23:45;100835.09;;;10.67;39.77
65997;BME280;52765;52.258;21.052;2023-04-27T12:26:11;100851.16;;;10.19;41.04
65997;BME280;52765;52.258;21.052;2023-04-27T12:28:37;100850.28;;;9.90;42.16
65997;BME280;52765;52.258;21.052;2023-04-27T12:31:03;100861.59;;;9.84;42.77
65997;BME280;52765;52.258;21.052;2023-04-27T12:33:28;100873.91;;;9.67;42.37
65997;BME280;52765;52.258;21.052;2023-04-27T12:35:54;100865.09;;;9.55;43.02
65997;BME280;52765;52.258;21.052;2023-04-27T12:38:20;100864.84;;;9.77;43.05
65997;BME280;52765;52.258;21.052;2023-04-27T12:40:47;100870.00;;;10.10;42.46
65997;BME280;52765;52.258;21.052;2023-04-27T12:43:13;100876.97;;;10.42;42.25
65997;BME280;52765;52.258;21.052;2023-04-27T12:45:38;100862.19;;;10.55;41.55
65997;BME280;52765;52.258;21.052;2023-04-27T12:48:04;100860.66;;;11.00;40.36
65997;BME280;52765;52.258;21.052;2023-04-27T12:50:35;100862.31;;;12.12;38.87
65997;BME280;52765;52.258;21.052;2023-04-27T12:53:01;100863.75;;;12.87;35.71
65997;BME280;52765;52.258;21.052;2023-04-27T12:55:31;100862.06;;;12.86;35.31